createdAt,value
2019-02-25T00:04:16.094Z,7.03
2019-02-25T00:29:28.758Z,11.10
2019-02-25T01:40:50.773Z,12.78
2019-02-25T01:46:02.311Z,12.53
2019-02-25T01:51:17.582Z,11.10
2019-02-25T02:03:06.846Z,8.78
2019-02-25T02:08:23.695Z,8.73
2019-02-25T02:13:52.656Z,8.80
2019-02-25T02:18:58.968Z,8.80
2019-02-25T02:24:03.907Z,8.93
2019-02-25T02:29:35.619Z,9.00
2019-02-25T02:34:40.434Z,7.80
2019-02-25T02:45:44.535Z,10.08
2019-02-25T02:50:49.057Z,8.78
2019-02-25T02:55:53.564Z,8.60
2019-02-25T03:00:57.982Z,9.15
2019-02-25T03:06:21.711Z,10.90
2019-02-25T03:11:36.071Z,8.95
2019-02-25T03:16:45.716Z,10.18
2019-02-25T03:21:50.073Z,9.63
2019-02-25T03:26:54.423Z,10.10
2019-02-25T03:31:59.802Z,8.93
2019-02-25T03:37:04.120Z,9.70
2019-02-25T03:42:08.585Z,9.00
2019-02-25T03:47:12.790Z,9.45
2019-02-25T03:52:17.127Z,10.82
2019-02-25T03:57:21.390Z,10.13
2019-02-25T04:02:25.972Z,9.05
2019-02-25T04:07:30.453Z,8.58
2019-02-25T10:15:05.121Z,7.67
2019-02-25T10:20:34.214Z,7.20
2019-02-25T10:25:46.194Z,8.13
2019-02-25T10:30:53.306Z,7.60
2019-02-25T10:35:58.208Z,7.37
2019-02-25T10:41:19.679Z,6.65
2019-02-25T10:46:33.152Z,7.83
2019-02-25T10:51:43.973Z,6.90
2019-02-25T10:56:59.453Z,7.83
2019-02-25T11:02:04.543Z,6.67
2019-02-25T11:07:09.762Z,7.00
2019-02-25T11:12:29.616Z,7.40
2019-02-25T11:17:34.161Z,6.50
2019-02-25T11:22:39.821Z,10.20
2019-02-25T11:27:44.846Z,7.00
2019-02-25T11:32:51.113Z,6.95
2019-02-25T11:37:57.065Z,7.67
2019-02-25T11:43:01.314Z,6.80
2019-02-25T11:48:06.134Z,6.90
2019-02-25T11:53:10.605Z,7.80
2019-02-25T11:58:15.172Z,6.67
2019-02-25T12:03:19.604Z,7.28
2019-02-25T12:08:47.759Z,7.07
2019-02-25T12:13:54.494Z,7.30
2019-02-25T12:18:59.012Z,8.10
2019-02-25T12:24:03.851Z,7.55
2019-02-25T12:29:10.793Z,7.83
2019-02-25T12:34:26.392Z,6.80
2019-02-25T12:39:33.948Z,7.80
2019-02-25T12:44:38.590Z,8.30
2019-02-25T12:49:43.134Z,6.55
2019-02-25T12:54:47.762Z,6.92
2019-02-25T12:59:52.536Z,6.93
2019-02-25T13:04:58.157Z,6.50
2019-02-25T13:10:03.382Z,11.27
2019-02-25T13:15:15.729Z,7.10
2019-02-25T13:20:50.859Z,5.95
2019-02-25T13:25:55.891Z,6.85
2019-02-25T13:31:13.239Z,6.53
2019-02-25T13:36:24.129Z,6.47
2019-02-25T13:41:28.712Z,6.22
2019-02-25T13:46:37.522Z,5.70
2019-02-25T13:51:49.465Z,6.40
2019-02-25T13:57:01.837Z,8.15
2019-02-25T14:02:10.899Z,8.20
2019-02-25T14:07:21.283Z,6.65
2019-02-25T14:12:31.488Z,6.12
2019-02-25T14:17:48.657Z,8.10
2019-02-25T14:23:08.915Z,5.67
2019-02-25T14:28:21.812Z,5.40
2019-02-25T14:34:24.611Z,5.60
2019-02-25T14:39:30.410Z,6.03
2019-02-25T14:49:58.511Z,6.55
2019-02-25T14:55:36.441Z,5.60
2019-02-25T15:01:12.722Z,6.83
2019-02-25T15:06:19.514Z,5.87
2019-02-25T15:11:25.997Z,6.47
2019-02-25T15:16:37.337Z,5.70
2019-02-25T15:21:47.372Z,6.20
2019-02-25T15:26:57.586Z,6.08
2019-02-25T15:32:03.716Z,6.85
2019-02-25T15:37:12.207Z,6.05
2019-02-25T15:42:30.089Z,8.10
2019-02-25T15:47:39.210Z,6.20
2019-02-25T15:52:48.464Z,7.47
2019-02-25T15:57:59.888Z,5.33
2019-02-25T16:03:16.150Z,6.30
2019-02-25T16:08:28.828Z,8.05
2019-02-25T23:22:12.229Z,13.13
2019-02-25T23:40:07.169Z,13.55
2019-02-25T23:45:12.975Z,13.75
2019-02-25T23:50:21.907Z,13.13
2019-02-25T23:55:27.797Z,10.73
